sensor_id;sensor_type;location;lat;lon;timestamp;pressure;altitude;pressure_sealevel;temperature;humidity
45864;BME280;31579;52.354;16.974;2023-02-19T00:00:31;227.0;;;-146.1;100.0
45864;BME280;31579;52.354;16.974;2023-02-19T00:01:37;247.8;;;-146.1;100.0
45864;BME280;31579;52.354;16.974;2023-02-19T00:02:40;248.7;;;-146.1;100.0
45864;BME280;31579;52.354;16.974;2023-02-19T00:03:47;246.0;;;-146.1;100.0
45864;BME280;31579;52.354;16.974;2023-02-19T00:04:46;217.2;;;-146.1;100.0
45864;BME280;31579;52.354;16.974;2023-02-19T00:05:50;238.9;;;-146.1;100.0
45864;BME280;31579;52.354;16.974;2023-02-19T00:06:54;240.4;;;-146.1;100.0
45864;BME280;31579;52.354;16.974;2023-02-19T00:07:58;237.8;;;-146.1;100.0
45864;BME280;31579;52.354;16.974;2023-02-19T00:09:01;188.1;;;-146.1;100.0
45864;BME280;31579;52.354;16.974;2023-02-19T00:10:04;199.1;;;-146.1;100.0
45864;BME280;31579;52.354;16.974;2023-02-19T00:11:10;236.3;;;-146.1;100.0
45864;BME280;31579;52.354;16.974;2023-02-19T00:12:12;241.0;;;-146.1;100.0
45864;BME280;31579;52.354;16.974;2023-02-19T00:13:16;238.7;;;-146.1;100.0
45864;BME280;31579;52.354;16.974;2023-02-19T00:14:21;236.0;;;-146.1;100.0
45864;BME280;31579;52.354;16.974;2023-02-19T00:15:25;232.3;;;-146.1;100.0
45864;BME280;31579;52.354;16.974;2023-02-19T00:16:30;228.1;;;-146.1;100.0
45864;BME280;31579;52.354;16.974;2023-02-19T00:17:34;223.8;;;-146.1;100.0
45864;BME280;31579;52.354;16.974;2023-02-19T00:18:38;219.4;;;-146.1;100.0
45864;BME280;31579;52.354;16.974;2023-02-19T00:19:41;216.6;;;-146.1;100.0
45864;BME280;31579;52.354;16.974;2023-02-19T00:20:45;213.4;;;-146.1;100.0
45864;BME280;31579;52.354;16.974;2023-02-19T00:21:50;209.9;;;-146.1;100.0
45864;BME280;31579;52.354;16.974;2023-02-19T00:22:53;179.4;;;-146.1;100.0
45864;BME280;31579;52.354;16.974;2023-02-19T00:23:58;174.6;;;-146.1;100.0
45864;BME280;31579;52.354;16.974;2023-02-19T00:25:01;205.5;;;-146.1;100.0
45864;BME280;31579;52.354;16.974;2023-02-19T00:26:07;209.4;;;-146.1;100.0
45864;BME280;31579;52.354;16.974;2023-02-19T00:27:09;181.3;;;-146.1;100.0
45864;BME280;31579;52.354;16.974;2023-02-19T00:28:10;138.5;;;-146.1;100.0
45864;BME280;31579;52.354;16.974;2023-02-19T00:29:16;201.6;;;-146.1;100.0
45864;BME280;31579;52.354;16.974;2023-02-19T00:30:20;214.9;;;-146.1;100.0
45864;BME280;31579;52.354;16.974;2023-02-19T00:31:25;217.1;;;-146.1;100.0
45864;BME280;31579;52.354;16.974;2023-02-19T00:32:28;215.4;;;-146.1;100.0
45864;BME280;31579;52.354;16.974;2023-02-19T00:33:32;212.2;;;-146.1;100.0
45864;BME280;31579;52.354;16.974;2023-02-19T00:34:36;209.5;;;-146.1;100.0
45864;BME280;31579;52.354;16.974;2023-02-19T00:35:40;205.8;;;-146.1;100.0
45864;BME280;31579;52.354;16.974;2023-02-19T00:36:44;202.3;;;-146.1;100.0
45864;BME280;31579;52.354;16.974;2023-02-19T00:37:48;198.2;;;-146.1;100.0
45864;BME280;31579;52.354;16.974;2023-02-19T00:38:51;164.0;;;-146.1;100.0
45864;BME280;31579;52.354;16.974;2023-02-19T00:39:55;190.6;;;-146.1;100.0
45864;BME280;31579;52.354;16.974;2023-02-19T00:40:59;193.8;;;-146.1;100.0
45864;BME280;31579;52.354;16.974;2023-02-19T00:42:01;129.6;;;-146.1;100.0
45864;BME280;31579;52.354;16.974;2023-02-19T00:43:04;143.2;;;-146.1;100.0
45864;BME280;31579;52.354;16.974;2023-02-19T00:44:08;192.2;;;-146.1;100.0
45864;BME280;31579;52.354;16.974;2023-02-19T00:45:12;202.9;;;-146.1;100.0
45864;BME280;31579;52.354;16.974;2023-02-19T00:46:16;204.6;;;-146.1;100.0
45864;BME280;31579;52.354;16.974;2023-02-19T00:47:20;203.6;;;-146.1;100.0
45864;BME280;31579;52.354;16.974;2023-02-19T00:48:24;201.7;;;-146.1;100.0
45864;BME280;31579;52.354;16.974;2023-02-19T00:49:34;275.3;;;-146.1;100.0
45864;BME280;31579;52.354;16.974;2023-02-19T00:50:38;196.5;;;-146.1;100.0
45864;BME280;31579;52.354;16.974;2023-02-19T00:51:42;183.3;;;-146.1;100.0
45864;BME280;31579;52.354;16.974;2023-02-19T00:52:46;177.7;;;-146.1;100.0
45864;BME280;31579;52.354;16.974;2023-02-19T00:53:49;145.7;;;-146.1;100.0
45864;BME280;31579;52.354;16.974;2023-02-19T00:54:54;170.9;;;-146.1;100.0
45864;BME280;31579;52.354;16.974;2023-02-19T00:55:57;174.0;;;-146.1;100.0
45864;BME280;31579;52.354;16.974;2023-02-19T00:57:01;172.5;;;-146.1;100.0
45864;BME280;31579;52.354;16.974;2023-02-19T00:58:06;170.0;;;-146.1;100.0
45864;BME280;31579;52.354;16.974;2023-02-19T00:59:10;168.6;;;-146.1;100.0
45864;BME280;31579;52.354;16.974;2023-02-19T01:00:15;167.0;;;-146.1;100.0
45864;BME280;31579;52.354;16.974;2023-02-19T01:01:17;136.3;;;-146.1;100.0
45864;BME280;31579;52.354;16.974;2023-02-19T01:02:21;162.1;;;-146.1;100.0
45864;BME280;31579;52.354;16.974;2023-02-19T01:03:24;136.2;;;-146.1;100.0
45864;BME280;31579;52.354;16.974;2023-02-19T01:04:28;164.0;;;-146.1;100.0
45864;BME280;31579;52.354;16.974;2023-02-19T01:05:30;109.8;;;-146.1;100.0
45864;BME280;31579;52.354;16.974;2023-02-19T01:06:32;90.9;;;-146.1;100.0
45864;BME280;31579;52.354;16.974;2023-02-19T01:07:36;167.9;;;-146.1;100.0
45864;BME280;31579;52.354;16.974;2023-02-19T01:08:40;187.9;;;-146.1;100.0
45864;BME280;31579;52.354;16.974;2023-02-19T01:09:44;190.8;;;-146.1;100.0
45864;BME280;31579;52.354;16.974;2023-02-19T01:10:48;191.6;;;-146.1;100.0
45864;BME280;31579;52.354;16.974;2023-02-19T01:11:52;189.8;;;-146.1;100.0
45864;BME280;31579;52.354;16.974;2023-02-19T01:12:56;186.9;;;-146.1;100.0
45864;BME280;31579;52.354;16.974;2023-02-19T01:14:00;148.2;;;-146.1;100.0
45864;BME280;31579;52.354;16.974;2023-02-19T01:15:05;179.2;;;-146.1;100.0
45864;BME280;31579;52.354;16.974;2023-02-19T01:16:10;183.5;;;-146.1;100.0
45864;BME280;31579;52.354;16.974;2023-02-19T01:17:12;182.6;;;-146.1;100.0
45864;BME280;31579;52.354;16.974;2023-02-19T01:18:16;180.6;;;-146.1;100.0
45864;BME280;31579;52.354;16.974;2023-02-19T01:19:20;178.6;;;-146.1;100.0
45864;BME280;31579;52.354;16.974;2023-02-19T01:20:24;175.9;;;-146.1;100.0
45864;BME280;31579;52.354;16.974;2023-02-19T01:21:29;173.5;;;-146.1;100.0
45864;BME280;31579;52.354;16.974;2023-02-19T01:22:30;108.5;;;-146.1;100.0
45864;BME280;31579;52.354;16.974;2023-02-19T01:23:32;93.6;;;-146.1;100.0
45864;BME280;31579;52.354;16.974;2023-02-19T01:24:36;167.6;;;-146.1;100.0
45864;BME280;31579;52.354;16.974;2023-02-19T01:25:40;189.1;;;-146.1;100.0
45864;BME280;31579;52.354;16.974;2023-02-19T01:26:44;196.2;;;-146.1;100.0
45864;BME280;31579;52.354;16.974;2023-02-19T01:27:47;154.4;;;-146.1;100.0
45864;BME280;31579;52.354;16.974;2023-02-19T01:28:51;192.5;;;-146.1;100.0
45864;BME280;31579;52.354;16.974;2023-02-19T01:29:55;199.2;;;-146.1;100.0
45864;BME280;31579;52.354;16.974;2023-02-19T01:31:00;200.9;;;-146.1;100.0
45864;BME280;31579;52.354;16.974;2023-02-19T01:32:01;122.0;;;-146.1;100.0
45864;BME280;31579;52.354;16.974;2023-02-19T01:33:06;187.1;;;-146.1;100.0
45864;BME280;31579;52.354;16.974;2023-02-19T01:34:11;203.7;;;-146.1;100.0
45864;BME280;31579;52.354;16.974;2023-02-19T01:35:15;209.2;;;-146.1;100.0
45864;BME280;31579;52.354;16.974;2023-02-19T01:36:18;165.0;;;-146.1;100.0
45864;BME280;31579;52.354;16.974;2023-02-19T01:37:22;205.1;;;-146.1;100.0
45864;BME280;31579;52.354;16.974;2023-02-19T01:38:26;212.9;;;-146.1;100.0
45864;BME280;31579;52.354;16.974;2023-02-19T01:39:29;167.9;;;-146.1;100.0
45864;BME280;31579;52.354;16.974;2023-02-19T01:40:33;208.4;;;-146.1;100.0
45864;BME280;31579;52.354;16.974;2023-02-19T01:41:37;167.6;;;-146.1;100.0
45864;BME280;31579;52.354;16.974;2023-02-19T01:42:41;159.0;;;-146.1;100.0
45864;BME280;31579;52.354;16.974;2023-02-19T01:45:50;217.7;;;-146.1;100.0
45864;BME280;31579;52.354;16.974;2023-02-19T01:46:54;227.7;;;-146.1;100.0
45864;BME280;31579;52.354;16.974;2023-02-19T01:50:04;180.4;;;-146.1;100.0
45864;BME280;31579;52.354;16.974;2023-02-19T01:51:09;224.4;;;-146.1;100.0
45864;BME280;31579;52.354;16.974;2023-02-19T01:53:17;184.3;;;-146.1;100.0
45864;BME280;31579;52.354;16.974;2023-02-19T01:54:20;228.5;;;-146.1;100.0
45864;BME280;31579;52.354;16.974;2023-02-19T01:55:23;185.2;;;-146.1;100.0
45864;BME280;31579;52.354;16.974;2023-02-19T01:56:27;230.3;;;-146.1;100.0
45864;BME280;31579;52.354;16.974;2023-02-19T01:57:32;191.4;;;-146.1;100.0
45864;BME280;31579;52.354;16.974;2023-02-19T01:58:34;176.3;;;-146.1;100.0
45864;BME280;31579;52.354;16.974;2023-02-19T01:59:38;176.4;;;-146.1;100.0
45864;BME280;31579;52.354;16.974;2023-02-19T02:00:41;181.7;;;-146.1;100.0
45864;BME280;31579;52.354;16.974;2023-02-19T02:01:45;232.5;;;-146.1;100.0
45864;BME280;31579;52.354;16.974;2023-02-19T02:02:50;249.2;;;-146.1;100.0
45864;BME280;31579;52.354;16.974;2023-02-19T02:03:53;255.6;;;-146.1;100.0
45864;BME280;31579;52.354;16.974;2023-02-19T02:04:58;256.8;;;-146.1;100.0
45864;BME280;31579;52.354;16.974;2023-02-19T02:06:14;368.1;;;-146.1;100.0
45864;BME280;31579;52.354;16.974;2023-02-19T02:07:14;266.5;;;-146.1;100.0
45864;BME280;31579;52.354;16.974;2023-02-19T02:08:17;210.3;;;-146.1;100.0
45864;BME280;31579;52.354;16.974;2023-02-19T02:09:21;192.7;;;-146.1;100.0
45864;BME280;31579;52.354;16.974;2023-02-19T02:10:23;184.6;;;-146.1;100.0
45864;BME280;31579;52.354;16.974;2023-02-19T02:11:26;179.3;;;-146.1;100.0
45864;BME280;31579;52.354;16.974;2023-02-19T02:12:29;176.4;;;-146.1;100.0
45864;BME280;31579;52.354;16.974;2023-02-19T02:13:33;226.1;;;-146.1;100.0
45864;BME280;31579;52.354;16.974;2023-02-19T02:14:39;235.1;;;-146.1;100.0
45864;BME280;31579;52.354;16.974;2023-02-19T02:15:45;235.5;;;-146.1;100.0
45864;BME280;31579;52.354;16.974;2023-02-19T02:18:54;186.0;;;-146.1;100.0
45864;BME280;31579;52.354;16.974;2023-02-19T02:30:46;182.8;;;-146.1;100.0
45864;BME280;31579;52.354;16.974;2023-02-19T02:31:49;179.2;;;-146.1;100.0
45864;BME280;31579;52.354;16.974;2023-02-19T02:34:58;142.6;;;-146.1;100.0
45864;BME280;31579;52.354;16.974;2023-02-19T02:36:02;137.7;;;-146.1;100.0
45864;BME280;31579;52.354;16.974;2023-02-19T02:37:03;168.7;;;-146.1;100.0
45864;BME280;31579;52.354;16.974;2023-02-19T02:38:08;172.2;;;-146.1;100.0
45864;BME280;31579;52.354;16.974;2023-02-19T02:39:11;141.1;;;-146.1;100.0
45864;BME280;31579;52.354;16.974;2023-02-19T02:40:14;168.3;;;-146.1;100.0
45864;BME280;31579;52.354;16.974;2023-02-19T02:41:19;171.2;;;-146.1;100.0
45864;BME280;31579;52.354;16.974;2023-02-19T02:42:22;169.2;;;-146.1;100.0
45864;BME280;31579;52.354;16.974;2023-02-19T02:43:26;167.3;;;-146.1;100.0
45864;BME280;31579;52.354;16.974;2023-02-19T02:45:35;162.3;;;-146.1;100.0
45864;BME280;31579;52.354;16.974;2023-02-19T02:46:39;131.3;;;-146.1;100.0
45864;BME280;31579;52.354;16.974;2023-02-19T02:48:49;126.5;;;-146.1;100.0
45864;BME280;31579;52.354;16.974;2023-02-19T02:49:47;164.6;;;-146.1;100.0
45864;BME280;31579;52.354;16.974;2023-02-19T02:51:55;170.7;;;-146.1;100.0
45864;BME280;31579;52.354;16.974;2023-02-19T02:53:02;169.1;;;-146.1;100.0
45864;BME280;31579;52.354;16.974;2023-02-19T02:55:08;164.8;;;-146.1;100.0
45864;BME280;31579;52.354;16.974;2023-02-19T02:56:12;162.7;;;-146.1;100.0
45864;BME280;31579;52.354;16.974;2023-02-19T02:57:16;160.3;;;-146.1;100.0
45864;BME280;31579;52.354;16.974;2023-02-19T02:58:20;158.5;;;-146.1;100.0
45864;BME280;31579;52.354;16.974;2023-02-19T02:59:26;156.2;;;-146.1;100.0
45864;BME280;31579;52.354;16.974;2023-02-19T03:00:28;155.2;;;-146.1;100.0
45864;BME280;31579;52.354;16.974;2023-02-19T03:02:35;124.0;;;-146.1;100.0
45864;BME280;31579;52.354;16.974;2023-02-19T03:03:40;152.0;;;-146.1;100.0
45864;BME280;31579;52.354;16.974;2023-02-19T03:05:48;155.1;;;-146.1;100.0
45864;BME280;31579;52.354;16.974;2023-02-19T03:06:50;125.6;;;-146.1;100.0
45864;BME280;31579;52.354;16.974;2023-02-19T03:10:01;100.8;;;-146.1;100.0
45864;BME280;31579;52.354;16.974;2023-02-19T03:11:06;118.4;;;-146.1;100.0
45864;BME280;31579;52.354;16.974;2023-02-19T03:12:08;95.1;;;-146.1;100.0
45864;BME280;31579;52.354;16.974;2023-02-19T03:13:11;121.2;;;-146.1;100.0
45864;BME280;31579;52.354;16.974;2023-02-19T03:14:17;181.1;;;-146.1;100.0
45864;BME280;31579;52.354;16.974;2023-02-19T03:15:17;197.0;;;-146.1;100.0
45864;BME280;31579;52.354;16.974;2023-02-19T03:16:24;202.2;;;-146.1;100.0
45864;BME280;31579;52.354;16.974;2023-02-19T03:17:30;203.5;;;-146.1;100.0
45864;BME280;31579;52.354;16.974;2023-02-19T03:18:29;202.9;;;-146.1;100.0
45864;BME280;31579;52.354;16.974;2023-02-19T03:19:34;201.7;;;-146.1;100.0
45864;BME280;31579;52.354;16.974;2023-02-19T03:20:39;199.5;;;-146.1;100.0
45864;BME280;31579;52.354;16.974;2023-02-19T03:21:42;197.1;;;-146.1;100.0
45864;BME280;31579;52.354;16.974;2023-02-19T03:22:45;195.1;;;-146.1;100.0
45864;BME280;31579;52.354;16.974;2023-02-19T03:23:49;192.3;;;-146.1;100.0
45864;BME280;31579;52.354;16.974;2023-02-19T03:25:56;145.6;;;-146.1;100.0
45864;BME280;31579;52.354;16.974;2023-02-19T03:27:00;145.0;;;-146.1;100.0
45864;BME280;31579;52.354;16.974;2023-02-19T03:28:04;190.9;;;-146.1;100.0
45864;BME280;31579;52.354;16.974;2023-02-19T03:29:08;200.3;;;-146.1;100.0
45864;BME280;31579;52.354;16.974;2023-02-19T03:30:14;202.4;;;-146.1;100.0
45864;BME280;31579;52.354;16.974;2023-02-19T03:31:17;202.3;;;-146.1;100.0
45864;BME280;31579;52.354;16.974;2023-02-19T03:32:22;160.6;;;-146.1;100.0
45864;BME280;31579;52.354;16.974;2023-02-19T03:33:24;196.9;;;-146.1;100.0
45864;BME280;31579;52.354;16.974;2023-02-19T03:34:29;201.8;;;-146.1;100.0
45864;BME280;31579;52.354;16.974;2023-02-19T03:35:30;160.9;;;-146.1;100.0
45864;BME280;31579;52.354;16.974;2023-02-19T03:36:38;198.3;;;-146.1;100.0
45864;BME280;31579;52.354;16.974;2023-02-19T03:37:40;204.1;;;-146.1;100.0
45864;BME280;31579;52.354;16.974;2023-02-19T03:38:43;162.1;;;-146.1;100.0
45864;BME280;31579;52.354;16.974;2023-02-19T03:39:43;154.0;;;-146.1;100.0
45864;BME280;31579;52.354;16.974;2023-02-19T03:46:08;156.1;;;-146.1;100.0
45864;BME280;31579;52.354;16.974;2023-02-19T03:49:19;213.7;;;-146.1;100.0
45864;BME280;31579;52.354;16.974;2023-02-19T03:50:20;213.2;;;-146.1;100.0
45864;BME280;31579;52.354;16.974;2023-02-19T03:54:37;271.5;;;-146.1;100.0
45864;BME280;31579;52.354;16.974;2023-02-19T04:02:04;287.7;;;-146.1;100.0
45864;BME280;31579;52.354;16.974;2023-02-19T04:03:50;229.3;;;-146.1;100.0
45864;BME280;31579;52.354;16.974;2023-02-19T04:05:12;225.8;;;-146.1;100.0
45864;BME280;31579;52.354;16.974;2023-02-19T04:06:16;277.4;;;-146.1;100.0
45864;BME280;31579;52.354;16.974;2023-02-19T04:07:18;289.5;;;-146.1;100.0
45864;BME280;31579;52.354;16.974;2023-02-19T04:08:22;293.0;;;-146.1;100.0
45864;BME280;31579;52.354;16.974;2023-02-19T04:09:28;292.9;;;-146.1;100.0
45864;BME280;31579;52.354;16.974;2023-02-19T04:10:30;292.4;;;-146.1;100.0
45864;BME280;31579;52.354;16.974;2023-02-19T04:11:34;291.4;;;-146.1;100.0
45864;BME280;31579;52.354;16.974;2023-02-19T04:12:39;290.0;;;-146.1;100.0
45864;BME280;31579;52.354;16.974;2023-02-19T04:13:46;286.9;;;-146.1;100.0
45864;BME280;31579;52.354;16.974;2023-02-19T04:15:50;280.2;;;-146.1;100.0
45864;BME280;31579;52.354;16.974;2023-02-19T04:17:00;276.5;;;-146.1;100.0
45864;BME280;31579;52.354;16.974;2023-02-19T04:18:01;272.8;;;-146.1;100.0
45864;BME280;31579;52.354;16.974;2023-02-19T04:19:02;181.6;;;-146.1;100.0
45864;BME280;31579;52.354;16.974;2023-02-19T04:20:06;251.3;;;-146.1;100.0
45864;BME280;31579;52.354;16.974;2023-02-19T04:21:09;266.3;;;-146.1;100.0
45864;BME280;31579;52.354;16.974;2023-02-19T04:22:12;217.8;;;-146.1;100.0
45864;BME280;31579;52.354;16.974;2023-02-19T04:23:19;261.8;;;-146.1;100.0
45864;BME280;31579;52.354;16.974;2023-02-19T04:24:21;215.1;;;-146.1;100.0
45864;BME280;31579;52.354;16.974;2023-02-19T04:25:23;261.3;;;-146.1;100.0
45864;BME280;31579;52.354;16.974;2023-02-19T04:26:27;269.4;;;-146.1;100.0
45864;BME280;31579;52.354;16.974;2023-02-19T04:27:30;218.1;;;-146.1;100.0
45864;BME280;31579;52.354;16.974;2023-02-19T04:28:33;205.1;;;-146.1;100.0
45864;BME280;31579;52.354;16.974;2023-02-19T04:29:37;259.6;;;-146.1;100.0
45864;BME280;31579;52.354;16.974;2023-02-19T04:30:41;212.2;;;-146.1;100.0
45864;BME280;31579;52.354;16.974;2023-02-19T04:31:44;261.5;;;-146.1;100.0
45864;BME280;31579;52.354;16.974;2023-02-19T04:32:48;271.2;;;-146.1;100.0
45864;BME280;31579;52.354;16.974;2023-02-19T04:33:52;274.8;;;-146.1;100.0
45864;BME280;31579;52.354;16.974;2023-02-19T04:34:55;220.5;;;-146.1;100.0
45864;BME280;31579;52.354;16.974;2023-02-19T04:35:59;264.7;;;-146.1;100.0
45864;BME280;31579;52.354;16.974;2023-02-19T04:37:02;216.3;;;-146.1;100.0
45864;BME280;31579;52.354;16.974;2023-02-19T04:38:06;264.1;;;-146.1;100.0
45864;BME280;31579;52.354;16.974;2023-02-19T04:39:09;215.8;;;-146.1;100.0
45864;BME280;31579;52.354;16.974;2023-02-19T04:40:13;264.4;;;-146.1;100.0
45864;BME280;31579;52.354;16.974;2023-02-19T04:41:17;274.2;;;-146.1;100.0
45864;BME280;31579;52.354;16.974;2023-02-19T04:42:21;218.7;;;-146.1;100.0
45864;BME280;31579;52.354;16.974;2023-02-19T04:43:25;266.3;;;-146.1;100.0
45864;BME280;31579;52.354;16.974;2023-02-19T04:44:29;276.0;;;-146.1;100.0
45864;BME280;31579;52.354;16.974;2023-02-19T04:45:35;277.8;;;-146.1;100.0
45864;BME280;31579;52.354;16.974;2023-02-19T04:46:39;221.9;;;-146.1;100.0
45864;BME280;31579;52.354;16.974;2023-02-19T04:47:40;209.1;;;-146.1;100.0
45864;BME280;31579;52.354;16.974;2023-02-19T04:48:43;206.0;;;-146.1;100.0
45864;BME280;31579;52.354;16.974;2023-02-19T04:49:46;208.4;;;-146.1;100.0
45864;BME280;31579;52.354;16.974;2023-02-19T04:50:50;263.5;;;-146.1;100.0
45864;BME280;31579;52.354;16.974;2023-02-19T04:51:54;279.3;;;-146.1;100.0
45864;BME280;31579;52.354;16.974;2023-02-19T04:52:58;283.6;;;-146.1;100.0
45864;BME280;31579;52.354;16.974;2023-02-19T04:54:08;342.8;;;-146.1;100.0
45864;BME280;31579;52.354;16.974;2023-02-19T04:55:12;293.3;;;-146.1;100.0
45864;BME280;31579;52.354;16.974;2023-02-19T04:56:16;283.1;;;-146.1;100.0
45864;BME280;31579;52.354;16.974;2023-02-19T04:57:20;278.8;;;-146.1;100.0
45864;BME280;31579;52.354;16.974;2023-02-19T04:58:24;274.7;;;-146.1;100.0
45864;BME280;31579;52.354;16.974;2023-02-19T04:59:29;271.6;;;-146.1;100.0
45864;BME280;31579;52.354;16.974;2023-02-19T05:00:31;221.9;;;-146.1;100.0
45864;BME280;31579;52.354;16.974;2023-02-19T05:01:35;259.2;;;-146.1;100.0
45864;BME280;31579;52.354;16.974;2023-02-19T05:02:38;214.2;;;-146.1;100.0
45864;BME280;31579;52.354;16.974;2023-02-19T05:03:42;257.1;;;-146.1;100.0
45864;BME280;31579;52.354;16.974;2023-02-19T05:04:45;211.3;;;-146.1;100.0
45864;BME280;31579;52.354;16.974;2023-02-19T05:05:48;200.3;;;-146.1;100.0
45864;BME280;31579;52.354;16.974;2023-02-19T05:06:52;254.1;;;-146.1;100.0
45864;BME280;31579;52.354;16.974;2023-02-19T05:07:56;265.1;;;-146.1;100.0
45864;BME280;31579;52.354;16.974;2023-02-19T05:09:00;267.8;;;-146.1;100.0
45864;BME280;31579;52.354;16.974;2023-02-19T05:10:05;215.5;;;-146.1;100.0
45864;BME280;31579;52.354;16.974;2023-02-19T05:11:08;202.3;;;-146.1;100.0
45864;BME280;31579;52.354;16.974;2023-02-19T05:12:10;198.5;;;-146.1;100.0
45864;BME280;31579;52.354;16.974;2023-02-19T05:13:13;200.0;;;-146.1;100.0
45864;BME280;31579;52.354;16.974;2023-02-19T05:14:17;256.5;;;-146.1;100.0
45864;BME280;31579;52.354;16.974;2023-02-19T05:15:21;271.7;;;-146.1;100.0
45864;BME280;31579;52.354;16.974;2023-02-19T05:16:25;277.7;;;-146.1;100.0
45864;BME280;31579;52.354;16.974;2023-02-19T05:17:31;278.9;;;-146.1;100.0
45864;BME280;31579;52.354;16.974;2023-02-19T05:18:32;224.2;;;-146.1;100.0
45864;BME280;31579;52.354;16.974;2023-02-19T05:19:35;211.1;;;-146.1;100.0
45864;BME280;31579;52.354;16.974;2023-02-19T05:20:39;266.3;;;-146.1;100.0
45864;BME280;31579;52.354;16.974;2023-02-19T05:21:43;276.8;;;-146.1;100.0
45864;BME280;31579;52.354;16.974;2023-02-19T05:22:47;279.7;;;-146.1;100.0
45864;BME280;31579;52.354;16.974;2023-02-19T05:23:51;279.3;;;-146.1;100.0
45864;BME280;31579;52.354;16.974;2023-02-19T05:24:55;223.3;;;-146.1;100.0
45864;BME280;31579;52.354;16.974;2023-02-19T05:26:04;267.6;;;-146.1;100.0
45864;BME280;31579;52.354;16.974;2023-02-19T05:27:03;224.6;;;-146.1;100.0
45864;BME280;31579;52.354;16.974;2023-02-19T05:28:04;199.7;;;-146.1;100.0
45864;BME280;31579;52.354;16.974;2023-02-19T05:29:08;245.0;;;-146.1;100.0
45864;BME280;31579;52.354;16.974;2023-02-19T05:30:12;271.8;;;-146.1;100.0
45864;BME280;31579;52.354;16.974;2023-02-19T05:31:17;279.1;;;-146.1;100.0
45864;BME280;31579;52.354;16.974;2023-02-19T05:32:21;282.8;;;-146.1;100.0
45864;BME280;31579;52.354;16.974;2023-02-19T05:33:24;225.5;;;-146.1;100.0
45864;BME280;31579;52.354;16.974;2023-02-19T05:34:28;273.7;;;-146.1;100.0
45864;BME280;31579;52.354;16.974;2023-02-19T05:35:31;223.0;;;-146.1;100.0
45864;BME280;31579;52.354;16.974;2023-02-19T05:36:36;273.3;;;-146.1;100.0
45864;BME280;31579;52.354;16.974;2023-02-19T05:37:39;283.9;;;-146.1;100.0
45864;BME280;31579;52.354;16.974;2023-02-19T05:38:43;286.7;;;-146.1;100.0
45864;BME280;31579;52.354;16.974;2023-02-19T05:39:47;229.4;;;-146.1;100.0
45864;BME280;31579;52.354;16.974;2023-02-19T05:40:51;274.2;;;-146.1;100.0
45864;BME280;31579;52.354;16.974;2023-02-19T05:41:55;282.4;;;-146.1;100.0
45864;BME280;31579;52.354;16.974;2023-02-19T05:42:59;283.4;;;-146.1;100.0
45864;BME280;31579;52.354;16.974;2023-02-19T05:44:03;283.0;;;-146.1;100.0
45864;BME280;31579;52.354;16.974;2023-02-19T05:45:07;281.1;;;-146.1;100.0
45864;BME280;31579;52.354;16.974;2023-02-19T05:46:12;278.6;;;-146.1;100.0
45864;BME280;31579;52.354;16.974;2023-02-19T05:47:15;275.6;;;-146.1;100.0
45864;BME280;31579;52.354;16.974;2023-02-19T05:48:19;272.1;;;-146.1;100.0
45864;BME280;31579;52.354;16.974;2023-02-19T05:49:23;269.1;;;-146.1;100.0
45864;BME280;31579;52.354;16.974;2023-02-19T05:50:28;264.1;;;-146.1;100.0
45864;BME280;31579;52.354;16.974;2023-02-19T05:51:31;261.4;;;-146.1;100.0
45864;BME280;31579;52.354;16.974;2023-02-19T05:52:35;256.8;;;-146.1;100.0
45864;BME280;31579;52.354;16.974;2023-02-19T05:53:40;252.9;;;-146.1;100.0
45864;BME280;31579;52.354;16.974;2023-02-19T05:54:43;248.7;;;-146.1;100.0
45864;BME280;31579;52.354;16.974;2023-02-19T05:55:47;245.3;;;-146.1;100.0
45864;BME280;31579;52.354;16.974;2023-02-19T05:56:51;240.9;;;-146.1;100.0
45864;BME280;31579;52.354;16.974;2023-02-19T05:57:55;236.7;;;-146.1;100.0
45864;BME280;31579;52.354;16.974;2023-02-19T05:59:00;233.1;;;-146.1;100.0
45864;BME280;31579;52.354;16.974;2023-02-19T06:00:03;197.1;;;-146.1;100.0
45864;BME280;31579;52.354;16.974;2023-02-19T06:01:04;143.5;;;-146.1;100.0
45864;BME280;31579;52.354;16.974;2023-02-19T06:02:08;216.4;;;-146.1;100.0
45864;BME280;31579;52.354;16.974;2023-02-19T06:03:12;232.4;;;-146.1;100.0
45864;BME280;31579;52.354;16.974;2023-02-19T06:04:16;234.4;;;-146.1;100.0
45864;BME280;31579;52.354;16.974;2023-02-19T06:05:20;233.6;;;-146.1;100.0
45864;BME280;31579;52.354;16.974;2023-02-19T06:06:25;230.8;;;-146.1;100.0
45864;BME280;31579;52.354;16.974;2023-02-19T06:07:32;228.7;;;-146.1;100.0
45864;BME280;31579;52.354;16.974;2023-02-19T06:08:32;225.9;;;-146.1;100.0
45864;BME280;31579;52.354;16.974;2023-02-19T06:09:36;221.8;;;-146.1;100.0
45864;BME280;31579;52.354;16.974;2023-02-19T06:10:40;218.6;;;-146.1;100.0
45864;BME280;31579;52.354;16.974;2023-02-19T06:11:44;213.4;;;-146.1;100.0
45864;BME280;31579;52.354;16.974;2023-02-19T06:12:51;210.7;;;-146.1;100.0
45864;BME280;31579;52.354;16.974;2023-02-19T06:13:52;207.2;;;-146.1;100.0
45864;BME280;31579;52.354;16.974;2023-02-19T06:14:16;237.9;;;-146.1;100.0
45864;BME280;31579;52.354;16.974;2023-02-19T06:15:20;200.9;;;-146.1;100.0
45864;BME280;31579;52.354;16.974;2023-02-19T06:16:24;192.0;;;-146.1;100.0
45864;BME280;31579;52.354;16.974;2023-02-19T06:17:28;188.5;;;-146.1;100.0
45864;BME280;31579;52.354;16.974;2023-02-19T06:18:32;185.1;;;-146.1;100.0
45864;BME280;31579;52.354;16.974;2023-02-19T06:19:36;183.7;;;-146.1;100.0
45864;BME280;31579;52.354;16.974;2023-02-19T06:20:40;181.9;;;-146.1;100.0
45864;BME280;31579;52.354;16.974;2023-02-19T06:21:44;180.6;;;-146.1;100.0
45864;BME280;31579;52.354;16.974;2023-02-19T06:22:49;179.3;;;-146.1;100.0
45864;BME280;31579;52.354;16.974;2023-02-19T06:23:53;178.1;;;-146.1;100.0
45864;BME280;31579;52.354;16.974;2023-02-19T06:24:57;176.0;;;-146.1;100.0
45864;BME280;31579;52.354;16.974;2023-02-19T06:27:06;173.9;;;-146.1;100.0
45864;BME280;31579;52.354;16.974;2023-02-19T06:28:09;148.3;;;-146.1;100.0
45864;BME280;31579;52.354;16.974;2023-02-19T06:29:12;124.1;;;-146.1;100.0
45864;BME280;31579;52.354;16.974;2023-02-19T06:30:16;174.4;;;-146.1;100.0
45864;BME280;31579;52.354;16.974;2023-02-19T06:31:19;154.1;;;-146.1;100.0